createdAt,value
2023-04-09T00:00:34.094Z,96264.6172
2023-04-09T00:01:35.795Z,96263.8438
2023-04-09T00:02:37.439Z,96261.3828
2023-04-09T00:03:39.624Z,96261.1562
2023-04-09T00:04:40.723Z,96259.2344
2023-04-09T00:05:42.321Z,96257.0781
2023-04-09T00:06:43.981Z,96257.3047
2023-04-09T00:07:45.614Z,96257.2344
2023-04-09T00:08:47.320Z,96257.1562
2023-04-09T00:09:48.916Z,96258.3047
2023-04-09T00:10:50.573Z,96256.9219
2023-04-09T00:11:52.254Z,96257.7656
2023-04-09T00:12:53.896Z,96256.5391
2023-04-09T00:13:55.567Z,96256.2344
2023-04-09T00:14:57.161Z,96256.6172
2023-04-09T00:15:58.825Z,96256.6172
2023-04-09T00:17:00.463Z,96256.5391
2023-04-09T00:18:02.135Z,96256.7656
2023-04-09T00:19:03.776Z,96256.0781
2023-04-09T00:20:05.374Z,96254.7656
2023-04-09T00:21:07.107Z,96254.1562
2023-04-09T00:22:08.671Z,96254.7656
2023-04-09T00:23:12.428Z,96254.0000
2023-04-09T00:24:12.058Z,96253.3828
2023-04-09T00:25:13.601Z,96254.4609
2023-04-09T00:26:15.376Z,96252.0000
2023-04-09T00:27:17.101Z,96251.0781
2023-04-09T00:28:18.580Z,96250.5391
2023-04-09T00:29:20.200Z,96250.3828
2023-04-09T00:30:21.845Z,96248.9219
2023-04-09T00:31:23.501Z,96249.5391
2023-04-09T00:32:25.304Z,96248.0781
2023-04-09T00:33:26.736Z,96247.8438
2023-04-09T00:34:28.429Z,96246.3047
2023-04-09T00:35:30.034Z,96245.5391
2023-04-09T00:36:31.675Z,96244.1562
2023-04-09T00:37:33.321Z,96242.6953
2023-04-09T00:38:34.957Z,96241.9219
2023-04-09T00:39:36.634Z,96240.2344
2023-04-09T00:40:38.253Z,96238.3828
2023-04-09T00:41:39.889Z,96237.5391
2023-04-09T00:42:41.610Z,96238.5391
2023-04-09T00:43:43.174Z,96238.0781
2023-04-09T00:44:44.876Z,96239.6953
2023-04-09T00:45:46.506Z,96238.9219
2023-04-09T00:46:48.116Z,96238.3047
2023-04-09T00:47:49.797Z,96238.3047
2023-04-09T00:48:51.598Z,96237.4609
2023-04-09T00:49:53.076Z,96237.8438
2023-04-09T00:50:54.710Z,96237.9219
2023-04-09T00:51:56.353Z,96237.7656
2023-04-09T00:52:58.009Z,96238.0000
2023-04-09T00:53:59.688Z,96238.3047
2023-04-09T00:55:01.300Z,96236.6953
2023-04-09T00:56:02.932Z,96236.9219
2023-04-09T00:57:04.589Z,96234.1562
2023-04-09T00:58:06.240Z,96234.7656
2023-04-09T00:59:07.854Z,96233.3047
2023-04-09T01:00:09.569Z,96233.2344
2023-04-09T01:01:11.179Z,96233.3828
2023-04-09T01:02:12.823Z,96232.4609
2023-04-09T01:03:14.511Z,96231.3828
2023-04-09T01:04:16.064Z,96232.3828
2023-04-09T01:05:17.706Z,96232.7656
2023-04-09T01:06:19.381Z,96232.6172
2023-04-09T01:07:20.996Z,96230.0781
2023-04-09T01:08:22.643Z,96231.5391
2023-04-09T01:09:24.293Z,96232.0781
2023-04-09T01:10:25.945Z,96230.0000
2023-04-09T01:11:27.547Z,96230.9219
2023-04-09T01:12:29.223Z,96229.6172
2023-04-09T01:13:30.832Z,96232.3047
2023-04-09T01:14:32.494Z,96232.5391
2023-04-09T01:15:34.169Z,96233.8438
2023-04-09T01:16:35.857Z,96232.6172
2023-04-09T01:17:37.452Z,96232.7656
2023-04-09T01:18:39.077Z,96231.8438
2023-04-09T01:19:40.693Z,96232.5391
2023-04-09T01:20:42.358Z,96232.6953
2023-04-09T01:21:44.013Z,96231.6172
2023-04-09T01:22:45.642Z,96230.6953
2023-04-09T01:23:47.288Z,96231.0781
2023-04-09T01:24:48.903Z,96232.3047
2023-04-09T01:25:50.602Z,96232.9219
2023-04-09T01:26:52.201Z,96232.9219
2023-04-09T01:27:53.844Z,96232.3047
2023-04-09T01:28:55.507Z,96228.8438
2023-04-09T01:29:57.119Z,96228.4609
2023-04-09T01:30:58.809Z,96228.5391
2023-04-09T01:32:00.393Z,96225.6172
2023-04-09T01:33:02.058Z,96225.0781
2023-04-09T01:34:03.706Z,96223.6172
2023-04-09T01:35:05.357Z,96222.8438
2023-04-09T01:36:07.082Z,96223.9219
2023-04-09T01:37:08.651Z,96223.0000
2023-04-09T01:38:10.273Z,96223.2344
2023-04-09T01:39:11.961Z,96223.7656
2023-04-09T01:40:13.597Z,96222.7656
2023-04-09T01:41:15.249Z,96223.0000
2023-04-09T01:42:16.857Z,96223.2344
2023-04-09T01:43:18.519Z,96223.0000
2023-04-09T01:44:20.171Z,96224.1562
2023-04-09T01:45:21.816Z,96224.6953
2023-04-09T01:46:23.569Z,96225.3828
2023-04-09T01:47:25.112Z,96224.0000
2023-04-09T01:48:26.729Z,96224.6953
2023-04-09T01:49:28.366Z,96223.9219
2023-04-09T01:50:30.009Z,96223.8438
2023-04-09T01:51:31.684Z,96223.5391
2023-04-09T01:52:33.300Z,96223.5391
2023-04-09T01:53:34.983Z,96224.1562
2023-04-09T01:54:36.631Z,96224.8438
2023-04-09T01:55:38.235Z,96225.8438
2023-04-09T01:56:39.894Z,96227.3828
2023-04-09T01:57:41.696Z,96225.8438
2023-04-09T01:58:43.190Z,96226.3828
2023-04-09T01:59:44.833Z,96229.0000
2023-04-09T02:00:46.492Z,96228.6953
2023-04-09T02:01:48.407Z,96229.0000
2023-04-09T02:02:49.929Z,96229.0000
2023-04-09T02:03:51.677Z,96229.0781
2023-04-09T02:04:53.153Z,96229.0000
2023-04-09T02:05:54.782Z,96228.5391
2023-04-09T02:06:56.460Z,96227.6953
2023-04-09T02:07:58.053Z,96228.1562
2023-04-09T02:08:59.699Z,96228.2344
2023-04-09T02:10:01.446Z,96228.0000
2023-04-09T02:11:03.001Z,96229.1562
2023-04-09T02:12:04.692Z,96229.2344
2023-04-09T02:13:06.346Z,96229.0781
2023-04-09T02:14:07.934Z,96229.8438
2023-04-09T02:15:09.579Z,96230.2344
2023-04-09T02:16:11.247Z,96231.0000
2023-04-09T02:17:12.854Z,96230.0781
2023-04-09T02:18:14.523Z,96231.3047
2023-04-09T02:19:16.183Z,96231.5391
2023-04-09T02:20:18.565Z,96230.2344
2023-04-09T02:21:19.432Z,96229.8438
2023-04-09T02:22:21.072Z,96229.0781
2023-04-09T02:23:22.750Z,96228.5391
2023-04-09T02:24:24.352Z,96228.3047
2023-04-09T02:25:25.994Z,96225.7656
2023-04-09T02:26:27.629Z,96225.5391
2023-04-09T02:27:29.310Z,96225.0781
2023-04-09T02:28:30.978Z,96224.9219
2023-04-09T02:29:32.613Z,96224.6172
2023-04-09T02:30:34.243Z,96222.2344
2023-04-09T02:31:35.892Z,96221.3047
2023-04-09T02:32:37.596Z,96220.7656
2023-04-09T02:33:39.235Z,96220.3047
2023-04-09T02:34:40.839Z,96219.9219
2023-04-09T02:35:42.526Z,96220.3047
2023-04-09T02:36:44.100Z,96220.1562
2023-04-09T02:37:45.789Z,96219.7656
2023-04-09T02:38:47.448Z,96220.6172
2023-04-09T02:39:49.052Z,96221.4609
2023-04-09T02:40:50.688Z,96220.7656
2023-04-09T02:41:52.349Z,96220.8438
2023-04-09T02:42:54.021Z,96221.1562
2023-04-09T02:43:55.676Z,96221.6172
2023-04-09T02:44:57.445Z,96220.7656
2023-04-09T02:45:58.940Z,96221.3047
2023-04-09T02:47:00.568Z,96220.0781
2023-04-09T02:48:02.228Z,96221.5391
2023-04-09T02:49:03.907Z,96220.8438
2023-04-09T02:50:05.530Z,96221.0781
2023-04-09T02:51:07.152Z,96221.5391
2023-04-09T02:52:08.795Z,96222.0781
2023-04-09T02:53:10.485Z,96219.8438
2023-04-09T02:54:12.099Z,96220.0781
2023-04-09T02:55:13.765Z,96219.6172
2023-04-09T02:56:15.391Z,96219.5391
2023-04-09T02:57:17.041Z,96218.0781
2023-04-09T02:58:18.724Z,96218.0781
2023-04-09T02:59:20.344Z,96217.9219
2023-04-09T03:00:22.068Z,96217.0000
2023-04-09T03:01:23.685Z,96217.5391
2023-04-09T03:02:25.411Z,96217.3047
2023-04-09T03:03:26.997Z,96216.3828
2023-04-09T03:04:28.599Z,96215.3047
2023-04-09T03:05:30.262Z,96213.3828
2023-04-09T03:06:31.906Z,96212.8438
2023-04-09T03:07:33.547Z,96211.1562
2023-04-09T03:08:35.216Z,96211.7656
2023-04-09T03:09:36.815Z,96211.3828
2023-04-09T03:10:38.459Z,96212.3047
2023-04-09T03:11:40.116Z,96212.2344
2023-04-09T03:12:41.777Z,96212.0000
2023-04-09T03:13:43.419Z,96211.6953
2023-04-09T03:14:45.063Z,96211.5391
2023-04-09T03:15:46.783Z,96211.0000
2023-04-09T03:16:48.382Z,96208.7656
2023-04-09T03:17:50.070Z,96207.3047
2023-04-09T03:18:51.831Z,96205.3828
2023-04-09T03:19:53.277Z,96205.0781
2023-04-09T03:20:54.969Z,96203.8438
2023-04-09T03:21:56.580Z,96204.1562
2023-04-09T03:22:58.206Z,96204.1562
2023-04-09T03:23:59.914Z,96203.4609
2023-04-09T03:25:01.506Z,96205.6172
2023-04-09T03:26:03.145Z,96205.5391
2023-04-09T03:27:04.830Z,96205.3047
2023-04-09T03:28:06.426Z,96204.9219
2023-04-09T03:29:08.130Z,96205.2344
2023-04-09T03:30:09.728Z,96205.6172
2023-04-09T03:31:11.421Z,96205.1562
2023-04-09T03:32:13.034Z,96206.8438
2023-04-09T03:33:14.695Z,96207.2344
2023-04-09T03:34:16.390Z,96207.0781
2023-04-09T03:35:17.976Z,96207.3828
2023-04-09T03:36:19.624Z,96206.0781
2023-04-09T03:37:21.305Z,96207.1562
2023-04-09T03:38:22.936Z,96206.4609
2023-04-09T03:39:24.587Z,96205.4609
2023-04-09T03:40:26.227Z,96204.3047
2023-04-09T03:41:27.846Z,96204.6953
2023-04-09T03:42:29.527Z,96203.3828
2023-04-09T03:43:31.146Z,96203.0000
2023-04-09T03:44:32.852Z,96203.0000
2023-04-09T03:45:34.450Z,96202.9219
2023-04-09T03:46:36.122Z,96204.2344
2023-04-09T03:47:37.799Z,96205.0000
2023-04-09T03:48:39.387Z,96206.0000
2023-04-09T03:49:41.092Z,96205.3828
2023-04-09T03:50:42.689Z,96205.2344
2023-04-09T03:51:44.364Z,96204.4609
2023-04-09T03:52:46.008Z,96204.7656
2023-04-09T03:53:47.640Z,96204.6172
2023-04-09T03:54:49.328Z,96204.3047
2023-04-09T03:55:50.925Z,96204.0000
2023-04-09T03:56:52.567Z,96204.3047
2023-04-09T03:57:54.269Z,96203.6953
2023-04-09T03:58:55.865Z,96203.3047
2023-04-09T03:59:57.611Z,96204.0781
2023-04-09T04:00:59.178Z,96204.7656
2023-04-09T04:02:00.893Z,96204.6953
2023-04-09T04:03:02.685Z,96204.8438
2023-04-09T04:04:04.160Z,96205.3047
2023-04-09T04:05:05.799Z,96207.0000
2023-04-09T04:06:07.392Z,96206.0000
2023-04-09T04:07:09.067Z,96206.0781
2023-04-09T04:08:10.683Z,96204.9219
2023-04-09T04:09:12.348Z,96206.0000
2023-04-09T04:10:14.045Z,96207.2344
2023-04-09T04:11:15.663Z,96207.2344
2023-04-09T04:12:17.305Z,96206.9219
2023-04-09T04:13:18.944Z,96207.3828
2023-04-09T04:14:20.619Z,96207.6172
2023-04-09T04:15:22.258Z,96205.7656
2023-04-09T04:16:23.971Z,96207.4609
2023-04-09T04:17:25.562Z,96207.1562
2023-04-09T04:18:27.204Z,96206.6172
2023-04-09T04:19:28.843Z,96207.0781
2023-04-09T04:20:30.504Z,96206.9219
2023-04-09T04:21:32.183Z,96207.2344
2023-04-09T04:22:33.782Z,96207.6172
2023-04-09T04:23:35.449Z,96208.0000
2023-04-09T04:24:37.076Z,96209.3047
2023-04-09T04:25:38.726Z,96210.8438
2023-04-09T04:26:40.397Z,96211.3047
2023-04-09T04:27:42.004Z,96212.4609
2023-04-09T04:28:43.681Z,96213.2344
2023-04-09T04:29:45.324Z,96213.2344
2023-04-09T04:30:46.983Z,96214.6172
2023-04-09T04:31:48.681Z,96215.3047
2023-04-09T04:32:50.279Z,96217.1562
2023-04-09T04:33:51.883Z,96217.5391
2023-04-09T04:34:53.576Z,96219.0781
2023-04-09T04:35:55.281Z,96221.4609
2023-04-09T04:36:56.847Z,96223.0781
2023-04-09T04:37:58.465Z,96225.3047
2023-04-09T04:39:00.099Z,96226.6172
2023-04-09T04:40:01.770Z,96226.6953
2023-04-09T04:41:03.417Z,96227.3828
2023-04-09T04:42:05.040Z,96226.9219
2023-04-09T04:43:06.685Z,96227.8438
2023-04-09T04:44:08.388Z,96225.3828
2023-04-09T04:45:09.968Z,96225.3047
2023-04-09T04:46:11.753Z,96226.6953
2023-04-09T04:47:13.279Z,96227.1562
2023-04-09T04:48:14.912Z,96226.9219
2023-04-09T04:49:16.591Z,96227.6172
2023-04-09T04:50:18.210Z,96225.8438
2023-04-09T04:51:19.927Z,96226.6172
2023-04-09T04:52:21.513Z,96225.3828
2023-04-09T04:53:23.158Z,96225.9219
2023-04-09T04:54:24.836Z,96225.5391
2023-04-09T04:55:26.454Z,96226.4609
2023-04-09T04:56:28.193Z,96226.4609
2023-04-09T04:57:29.774Z,96226.6172
2023-04-09T04:58:31.389Z,96225.6172
2023-04-09T04:59:33.055Z,96226.6172
2023-04-09T05:00:34.704Z,96227.4609
2023-04-09T05:01:36.495Z,96229.4609
2023-04-09T05:02:38.189Z,96228.9219
2023-04-09T05:03:39.784Z,96228.7656
2023-04-09T05:04:41.287Z,96228.8438
2023-04-09T05:05:42.937Z,96228.4609
2023-04-09T05:06:44.585Z,96230.8438
2023-04-09T05:07:46.229Z,96231.0000
2023-04-09T05:08:47.865Z,96232.6953
2023-04-09T05:09:49.530Z,96232.3047
2023-04-09T05:10:51.330Z,96234.3047
2023-04-09T05:11:52.855Z,96234.6953
2023-04-09T05:12:54.457Z,96234.7656
2023-04-09T05:13:56.102Z,96235.3828
2023-04-09T05:14:57.750Z,96238.4609
2023-04-09T05:15:59.397Z,96238.1562
2023-04-09T05:17:01.123Z,96237.4609
2023-04-09T05:18:02.704Z,96238.1562
2023-04-09T05:19:04.330Z,96237.8438
2023-04-09T05:20:06.005Z,96239.6172
2023-04-09T05:21:07.608Z,96237.6953
2023-04-09T05:22:09.338Z,96237.0781
2023-04-09T05:23:10.925Z,96238.3828
2023-04-09T05:24:12.602Z,96237.2344
2023-04-09T05:25:14.260Z,96237.6953
2023-04-09T05:26:15.881Z,96239.0000
2023-04-09T05:27:17.544Z,96238.7656
2023-04-09T05:28:19.184Z,96240.2344
2023-04-09T05:29:20.840Z,96241.0000
2023-04-09T05:30:22.455Z,96241.0781
2023-04-09T05:31:24.168Z,96239.3828
2023-04-09T05:32:25.841Z,96239.6172
2023-04-09T05:33:27.374Z,96238.2344
2023-04-09T05:34:29.052Z,96239.3047
2023-04-09T05:35:30.757Z,96239.3047
2023-04-09T05:36:32.349Z,96236.9219
2023-04-09T05:37:34.044Z,96234.0000
2023-04-09T05:38:35.615Z,96231.3828
2023-04-09T05:39:37.275Z,96230.0000
2023-04-09T05:40:38.915Z,96228.9219
2023-04-09T05:41:40.590Z,96226.7656
2023-04-09T05:42:42.257Z,96228.1562
2023-04-09T05:43:43.885Z,96226.2344
2023-04-09T05:44:45.499Z,96226.5391
2023-04-09T05:45:47.154Z,96225.5391
2023-04-09T05:46:48.831Z,96225.8438
2023-04-09T05:47:50.493Z,96225.8438
2023-04-09T05:48:52.422Z,96224.7656
2023-04-09T05:49:53.751Z,96225.3047
2023-04-09T05:50:55.939Z,96228.5391
2023-04-09T05:51:57.081Z,96227.0000
2023-04-09T05:52:58.726Z,96227.1562
2023-04-09T05:54:00.351Z,96227.6953
2023-04-09T05:55:01.985Z,96230.2344
2023-04-09T05:56:03.610Z,96228.9219
2023-04-09T05:57:05.246Z,96228.4609
2023-04-09T05:58:06.946Z,96226.3047
2023-04-09T05:59:08.594Z,96229.7656
2023-04-09T06:00:10.192Z,96230.7656
2023-04-09T06:01:11.873Z,96230.6953
2023-04-09T06:02:13.551Z,96231.1562
2023-04-09T06:03:15.391Z,96229.6172
2023-04-09T06:04:17.110Z,96229.7656
2023-04-09T06:05:18.439Z,96231.1562
2023-04-09T06:06:20.176Z,96230.3047
2023-04-09T06:07:21.808Z,96229.6172
2023-04-09T06:08:23.499Z,96231.3828
2023-04-09T06:09:25.120Z,96232.9219
2023-04-09T06:10:26.757Z,96232.6953
2023-04-09T06:11:28.394Z,96233.1562
2023-04-09T06:12:30.041Z,96234.8438
2023-04-09T06:13:31.723Z,96236.6172
2023-04-09T06:14:33.350Z,96236.3047
2023-04-09T06:15:34.984Z,96240.9219
2023-04-09T06:16:36.581Z,96243.3828
2023-04-09T06:17:38.258Z,96242.2344
2023-04-09T06:18:39.923Z,96241.5391
2023-04-09T06:19:41.538Z,96243.9219
2023-04-09T06:20:43.192Z,96246.2344
2023-04-09T06:21:44.828Z,96245.3047
2023-04-09T06:22:46.480Z,96244.5391
2023-04-09T06:23:48.160Z,96244.6172
2023-04-09T06:24:49.784Z,96244.3047
2023-04-09T06:25:51.380Z,96245.8438
2023-04-09T06:26:53.078Z,96243.0781
2023-04-09T06:27:54.677Z,96242.6953
2023-04-09T06:28:56.300Z,96240.5391
2023-04-09T06:29:57.994Z,96243.0000
2023-04-09T06:30:59.759Z,96242.0781
2023-04-09T06:32:01.251Z,96245.2344
2023-04-09T06:33:03.014Z,96239.6953
2023-04-09T06:34:04.537Z,96239.3828
2023-04-09T06:35:06.219Z,96238.2344
2023-04-09T06:36:07.913Z,96241.6172
2023-04-09T06:37:09.476Z,96242.2344
2023-04-09T06:38:11.130Z,96241.9219
2023-04-09T06:39:12.756Z,96243.3828
2023-04-09T06:40:14.476Z,96242.6172
2023-04-09T06:41:16.051Z,96241.2344
2023-04-09T06:42:17.698Z,96242.4609
2023-04-09T06:43:19.373Z,96240.6953
2023-04-09T06:44:20.980Z,96242.0000
2023-04-09T06:45:22.683Z,96245.0781
2023-04-09T06:46:24.298Z,96243.0781
2023-04-09T06:47:25.964Z,96243.6172
2023-04-09T06:48:27.593Z,96244.5391
2023-04-09T06:49:29.241Z,96249.9219
2023-04-09T06:50:30.932Z,96246.9219
2023-04-09T06:51:32.557Z,96248.1562
2023-04-09T06:52:34.204Z,96248.8438
2023-04-09T06:53:35.883Z,96251.5391
2023-04-09T06:54:37.500Z,96252.3047
2023-04-09T06:55:39.123Z,96252.9219
2023-04-09T06:56:40.762Z,96255.4609
2023-04-09T06:57:42.444Z,96254.5391
2023-04-09T06:58:44.046Z,96253.6953
2023-04-09T06:59:45.702Z,96253.3828
2023-04-09T07:00:47.406Z,96255.3047
2023-04-09T07:01:49.076Z,96254.9219
2023-04-09T07:02:50.867Z,96250.9219
2023-04-09T07:03:52.962Z,96251.8438
2023-04-09T07:04:54.005Z,96250.7656
2023-04-09T07:05:55.723Z,96255.0000
2023-04-09T07:06:57.322Z,96253.0000
2023-04-09T07:07:58.943Z,96253.4609
2023-04-09T07:09:00.606Z,96251.5391
2023-04-09T07:10:02.305Z,96251.8438
2023-04-09T07:11:03.976Z,96250.6953
2023-04-09T07:12:05.564Z,96251.3828
2023-04-09T07:13:07.209Z,96251.0000
2023-04-09T07:14:08.864Z,96251.2344
2023-04-09T07:15:10.544Z,96251.3047
2023-04-09T07:16:12.244Z,96251.3828
2023-04-09T07:17:13.810Z,96250.5391
2023-04-09T07:18:15.449Z,96251.0781
2023-04-09T07:19:17.093Z,96250.4609
2023-04-09T07:20:18.780Z,96250.9219
2023-04-09T07:21:20.397Z,96249.7656
2023-04-09T07:22:22.170Z,96247.6953
2023-04-09T07:23:23.727Z,96246.3047
2023-04-09T07:24:25.321Z,96249.0781
2023-04-09T07:25:26.926Z,96247.0000
2023-04-09T07:26:28.686Z,96243.3828
2023-04-09T07:27:30.294Z,96241.8438
2023-04-09T07:28:31.890Z,96245.4609
2023-04-09T07:29:33.526Z,96244.4609
2023-04-09T07:30:35.247Z,96247.0000
2023-04-09T07:31:36.958Z,96245.0781
2023-04-09T07:32:38.564Z,96246.1562
2023-04-09T07:33:40.127Z,96248.4609
2023-04-09T07:34:41.766Z,96249.6953
2023-04-09T07:35:43.438Z,96248.6172
2023-04-09T07:36:45.089Z,96250.3828
2023-04-09T07:37:46.685Z,96252.3828
2023-04-09T07:38:48.375Z,96251.3828
2023-04-09T07:39:49.973Z,96254.6172
2023-04-09T07:40:51.686Z,96254.6172
2023-04-09T07:41:53.326Z,96255.5391
2023-04-09T07:42:54.928Z,96257.0000
2023-04-09T07:43:56.612Z,96258.1562
2023-04-09T07:44:58.217Z,96259.9219
2023-04-09T07:45:59.900Z,96260.8438
2023-04-09T07:47:01.712Z,96260.3047
2023-04-09T07:48:03.191Z,96260.9219
2023-04-09T07:49:04.848Z,96259.6953
2023-04-09T07:50:06.470Z,96258.6953
2023-04-09T07:51:08.125Z,96259.0000
2023-04-09T07:52:09.806Z,96259.2344
2023-04-09T07:53:11.412Z,96258.5391
2023-04-09T07:54:13.074Z,96262.1562
2023-04-09T07:55:15.427Z,96259.0781
2023-04-09T07:56:16.336Z,96261.4609
2023-04-09T07:57:18.047Z,96260.8438
2023-04-09T07:58:19.646Z,96263.2344
2023-04-09T07:59:21.329Z,96260.2344
2023-04-09T08:00:22.934Z,96259.4609
2023-04-09T08:01:24.670Z,96260.8438
2023-04-09T08:02:26.579Z,96262.3828
2023-04-09T08:03:28.191Z,96262.0781
2023-04-09T08:04:29.549Z,96265.4609
2023-04-09T08:05:31.095Z,96259.3828
2023-04-09T08:06:32.685Z,96258.3828
2023-04-09T08:07:34.385Z,96259.9219
2023-04-09T08:08:35.990Z,96263.0000
2023-04-09T08:09:37.632Z,96261.5391
2023-04-09T08:10:39.266Z,96261.3828
2023-04-09T08:11:40.932Z,96259.0000
2023-04-09T08:12:42.525Z,96260.4609
2023-04-09T08:13:44.202Z,96263.0000
2023-04-09T08:14:45.850Z,96264.3047
2023-04-09T08:15:47.500Z,96264.1562
2023-04-09T08:16:49.203Z,96265.2344
2023-04-09T08:17:50.894Z,96264.9219
2023-04-09T08:18:52.750Z,96262.5391
2023-04-09T08:19:54.054Z,96262.7656
2023-04-09T08:20:55.719Z,96262.0000
2023-04-09T08:21:57.359Z,96261.6172
2023-04-09T08:22:59.025Z,96265.0781
2023-04-09T08:24:00.613Z,96267.3047
2023-04-09T08:25:02.976Z,96262.8438
2023-04-09T08:26:03.900Z,96262.0000
2023-04-09T08:27:05.549Z,96264.3828
2023-04-09T08:28:07.229Z,96267.1562
2023-04-09T08:29:08.806Z,96268.0000
2023-04-09T08:30:10.496Z,96269.5391
2023-04-09T08:31:12.117Z,96269.0781
2023-04-09T08:32:13.873Z,96269.1562
2023-04-09T08:33:15.441Z,96273.5391
2023-04-09T08:34:17.235Z,96274.0000
2023-04-09T08:35:19.049Z,96277.9219
2023-04-09T08:36:20.378Z,96277.2344
2023-04-09T08:37:21.977Z,96276.1562
2023-04-09T08:38:23.639Z,96274.9219
2023-04-09T08:39:25.284Z,96275.0781
2023-04-09T08:40:26.901Z,96275.8438
2023-04-09T08:41:28.564Z,96279.0781
2023-04-09T08:42:30.203Z,96273.5391
2023-04-09T08:43:52.518Z,96276.6172
2023-04-09T08:44:33.513Z,96281.6953
2023-04-09T08:45:35.203Z,96281.8438
2023-04-09T08:46:36.817Z,96282.0000
2023-04-09T08:47:38.529Z,96278.2344
2023-04-09T08:48:40.194Z,96278.6172
2023-04-09T08:49:41.827Z,96278.8438
2023-04-09T08:50:43.385Z,96281.0000
2023-04-09T08:51:45.034Z,96280.0781
2023-04-09T08:52:46.685Z,96282.6172
2023-04-09T08:53:48.344Z,96282.9219
2023-04-09T08:54:49.998Z,96281.0000
2023-04-09T08:55:51.624Z,96281.0000
2023-04-09T08:56:53.259Z,96282.0000
2023-04-09T08:57:54.912Z,96285.1562
2023-04-09T08:58:56.549Z,96285.7656
2023-04-09T08:59:58.198Z,96285.3047
2023-04-09T09:00:59.892Z,96284.9219
2023-04-09T09:02:01.649Z,96283.3828
2023-04-09T09:03:03.393Z,96287.4609
2023-04-09T09:04:04.926Z,96286.9219
2023-04-09T09:05:06.430Z,96286.7656
2023-04-09T09:06:08.066Z,96286.3828
2023-04-09T09:07:09.733Z,96286.5391
2023-04-09T09:08:11.356Z,96286.3828
2023-04-09T09:09:13.080Z,96293.4609
2023-04-09T09:10:14.657Z,96290.3828
2023-04-09T09:11:16.344Z,96286.1562
2023-04-09T09:12:17.935Z,96287.4609
2023-04-09T09:13:19.637Z,96287.7656
2023-04-09T09:14:21.258Z,96290.0000
2023-04-09T09:15:22.898Z,96297.5391
2023-04-09T09:16:24.644Z,96293.0000
2023-04-09T09:17:26.237Z,96289.4609
2023-04-09T09:18:27.867Z,96291.2344
2023-04-09T09:19:29.507Z,96290.6172
2023-04-09T09:20:31.144Z,96295.0000
2023-04-09T09:21:32.754Z,96292.9219
2023-04-09T09:22:34.409Z,96291.6953
2023-04-09T09:23:36.057Z,96291.9219
2023-04-09T09:24:37.714Z,96294.7656
2023-04-09T09:25:39.347Z,96298.2344
2023-04-09T09:26:40.992Z,96298.4609
2023-04-09T09:27:42.694Z,96295.6172
2023-04-09T09:28:44.376Z,96293.3828
2023-04-09T09:29:46.128Z,96296.1562
2023-04-09T09:30:49.200Z,96293.3047
2023-04-09T09:31:49.440Z,96294.1562
2023-04-09T09:32:50.977Z,96298.3828
2023-04-09T09:33:52.572Z,96293.4609
2023-04-09T09:34:54.291Z,96294.6953
2023-04-09T09:35:55.876Z,96295.0000
2023-04-09T09:36:57.499Z,96293.1562
2023-04-09T09:37:59.212Z,96291.6172
2023-04-09T09:39:00.771Z,96287.3047
2023-04-09T09:40:02.541Z,96291.0781
2023-04-09T09:41:04.210Z,96289.4609
2023-04-09T09:42:05.792Z,96290.6953
2023-04-09T09:43:07.386Z,96289.7656
2023-04-09T09:44:09.028Z,96286.5391
2023-04-09T09:45:10.788Z,96284.4609
2023-04-09T09:46:12.365Z,96281.6172
2023-04-09T09:47:14.030Z,96278.5391
2023-04-09T09:48:15.602Z,96279.0000
2023-04-09T09:49:17.281Z,96279.5391
2023-04-09T09:50:18.935Z,96280.3047
2023-04-09T09:51:20.535Z,96279.0000
2023-04-09T09:52:22.275Z,96279.6172
2023-04-09T09:53:23.833Z,96280.5391
2023-04-09T09:54:25.511Z,96281.2344
2023-04-09T09:55:27.137Z,96279.2344
2023-04-09T09:56:28.737Z,96276.8438
2023-04-09T09:57:30.305Z,96277.6172
2023-04-09T09:58:31.942Z,96282.3828
2023-04-09T09:59:33.579Z,96279.5391
2023-04-09T10:00:35.279Z,96277.2344
2023-04-09T10:01:37.260Z,96280.3828
2023-04-09T10:02:38.624Z,96277.7656
2023-04-09T10:03:40.148Z,96276.3047
2023-04-09T10:04:41.866Z,96280.2344
2023-04-09T10:05:43.487Z,96278.6172
2023-04-09T10:06:45.042Z,96280.7656
2023-04-09T10:07:46.710Z,96279.9219
2023-04-09T10:08:48.418Z,96283.8438
2023-04-09T10:09:50.090Z,96279.6172
2023-04-09T10:10:51.780Z,96275.0000
2023-04-09T10:11:53.365Z,96273.6172
2023-04-09T10:12:55.004Z,96275.2344
2023-04-09T10:13:56.659Z,96277.8438
2023-04-09T10:14:58.280Z,96270.9219
2023-04-09T10:16:00.104Z,96273.5391
2023-04-09T10:17:01.611Z,96272.9219
2023-04-09T10:18:03.455Z,96273.7656
2023-04-09T10:19:04.855Z,96269.0781
2023-04-09T10:20:06.492Z,96271.0781
2023-04-09T10:21:08.183Z,96274.4609
2023-04-09T10:22:09.791Z,96272.5391
2023-04-09T10:23:11.589Z,96271.5391
2023-04-09T10:24:13.073Z,96267.7656
2023-04-09T10:25:14.710Z,96261.4609
2023-04-09T10:26:16.375Z,96257.5391
2023-04-09T10:27:17.984Z,96259.5391
2023-04-09T10:28:19.648Z,96265.6953
2023-04-09T10:29:21.265Z,96258.9219
2023-04-09T10:30:22.929Z,96263.3047
2023-04-09T10:31:24.694Z,96265.0000
2023-04-09T10:32:26.293Z,96261.5391
2023-04-09T10:33:27.808Z,96258.0000
2023-04-09T10:34:29.507Z,96256.4609
2023-04-09T10:35:31.131Z,96252.7656
2023-04-09T10:36:32.812Z,96255.0000
2023-04-09T10:37:34.426Z,96257.6953
2023-04-09T10:38:36.049Z,96255.6172
2023-04-09T10:39:37.775Z,96255.2344
2023-04-09T10:40:39.428Z,96255.0000
2023-04-09T10:41:41.145Z,96252.9219
2023-04-09T10:42:42.710Z,96251.0781
2023-04-09T10:43:44.367Z,96255.1562
2023-04-09T10:44:46.030Z,96253.0000
2023-04-09T10:45:47.738Z,96260.3828
2023-04-09T10:46:49.402Z,96259.6953
2023-04-09T10:47:50.983Z,96259.5391
2023-04-09T10:48:52.744Z,96254.6953
2023-04-09T10:49:54.292Z,96255.0000
2023-04-09T10:50:55.902Z,96253.5391
2023-04-09T10:51:57.606Z,96251.6172
2023-04-09T10:52:59.161Z,96258.3828
2023-04-09T10:54:00.857Z,96253.7656
2023-04-09T10:55:02.454Z,96250.7656
2023-04-09T10:56:04.113Z,96248.3828
2023-04-09T10:57:05.791Z,96249.7656
2023-04-09T10:58:09.082Z,96254.2344
2023-04-09T10:59:08.993Z,96250.9219
2023-04-09T11:00:10.685Z,96245.3828
2023-04-09T11:01:12.254Z,96244.3047
2023-04-09T11:02:14.042Z,96247.5391
2023-04-09T11:03:15.697Z,96248.0000
2023-04-09T11:04:17.150Z,96246.7656
2023-04-09T11:05:18.831Z,96246.7656
2023-04-09T11:06:20.501Z,96244.6953
2023-04-09T11:07:22.162Z,96240.0000
2023-04-09T11:08:23.787Z,96239.8438
2023-04-09T11:09:25.457Z,96235.3828
2023-04-09T11:10:27.036Z,96242.9219
2023-04-09T11:11:28.685Z,96242.3047
2023-04-09T11:12:30.397Z,96242.1562
2023-04-09T11:13:31.995Z,96241.5391
2023-04-09T11:14:33.618Z,96239.6172
2023-04-09T11:15:35.215Z,96241.6172
2023-04-09T11:16:36.941Z,96239.9219
2023-04-09T11:17:38.605Z,96237.7656
2023-04-09T11:18:40.142Z,96238.7656
2023-04-09T11:19:41.812Z,96236.2344
2023-04-09T11:20:43.430Z,96231.7656
2023-04-09T11:21:45.052Z,96231.8438
2023-04-09T11:22:46.733Z,96236.3047
2023-04-09T11:23:48.333Z,96235.5391